Time;durP1;ratioP1;P1;durP2;ratioP2;P2;SDS_P1;SDS_P2;PMS_P1;PMS_P2;Temp;Humidity;BMP_temperature;BMP_pressure;BME280_temperature;BME280_humidity;BME280_pressure;Samples;Min_cycle;Max_cycle;Signal;HPM_P1;HPM_P2
2022/06/17 02:48:30;;;;;;;6.45;2.05;;;18.20;98.60;;;;;;4927275;23;92193;-71
2022/06/17 02:50:59;;;;;;;5.97;2.20;;;18.10;98.70;;;;;;4914126;28;93728;-71
2022/06/17 02:53:33;;;;;;;4.60;2.75;;;18.20;98.20;;;;;;4913770;28;93286;-71
2022/06/17 02:56:02;;;;;;;5.43;2.22;;;18.20;99.40;;;;;;4915123;28;91978;-71
2022/06/17 02:59:05;;;;;;;4.85;2.38;;;18.10;99.70;;;;;;4914397;28;92500;-70
2022/06/17 03:01:38;;;;;;;6.88;2.38;;;18.10;98.80;;;;;;4914620;28;93702;-71
2022/06/17 03:04:26;;;;;;;6.45;2.85;;;18.10;99.30;;;;;;4917557;28;92250;-71
2022/06/17 03:06:52;;;;;;;4.70;2.30;;;18.10;99.30;;;;;;4917657;28;91998;-71
2022/06/17 03:09:23;;;;;;;4.40;2.55;;;18.10;98.90;;;;;;4918089;28;92333;-71
2022/06/17 03:11:56;;;;;;;6.20;2.53;;;18.10;99.40;;;;;;4900783;28;93676;-71
2022/06/17 03:14:23;;;;;;;8.43;2.72;;;18.10;99.80;;;;;;4898250;28;93144;-71
2022/06/17 03:16:53;;;;;;;6.20;2.25;;;18.10;99.90;;;;;;4898953;28;91485;-71
2022/06/17 03:19:21;;;;;;;5.95;2.75;;;18.10;99.90;;;;;;4898579;28;92404;-70
2022/06/17 03:21:47;;;;;;;5.72;2.22;;;18.00;99.90;;;;;;4898092;28;92807;-70
2022/06/17 03:24:22;;;;;;;5.65;2.20;;;18.00;99.90;;;;;;4917171;28;92269;-70
2022/06/17 03:27:12;;;;;;;5.82;3.47;;;18.00;99.90;;;;;;4917991;28;92982;-70
2022/06/17 03:29:40;;;;;;;5.05;2.58;;;18.00;99.90;;;;;;4918142;28;91416;-70
2022/06/17 03:32:14;;;;;;;7.32;2.38;;;18.00;99.90;;;;;;4916519;28;93790;-70
2022/06/17 03:34:54;;;;;;;5.13;2.47;;;18.00;99.90;;;;;;4916874;28;92214;-70
2022/06/17 03:37:26;;;;;;;6.57;2.78;;;18.10;99.90;;;;;;4916664;28;92967;-70
2022/06/17 03:39:58;;;;;;;3.47;2.22;;;18.10;99.90;;;;;;4916731;28;92491;-70
2022/06/17 03:42:45;;;;;;;5.32;3.00;;;18.00;99.90;;;;;;4917186;28;93700;-71
2022/06/17 03:45:21;;;;;;;7.50;2.72;;;18.10;99.90;;;;;;4917280;28;92443;-71
2022/06/17 03:48:13;;;;;;;4.72;2.30;;;18.10;99.90;;;;;;4916812;28;92335;-71
2022/06/17 03:50:44;;;;;;;7.32;2.65;;;18.00;99.90;;;;;;4914130;28;92160;-71
2022/06/17 03:53:30;;;;;;;3.50;2.00;;;18.20;99.90;;;;;;4897309;28;93449;-71
2022/06/17 03:56:06;;;;;;;6.40;2.90;;;18.60;99.90;;;;;;4897719;28;93229;-73
2022/06/17 03:58:32;;;;;;;5.18;2.42;;;18.90;99.90;;;;;;4897999;28;92183;-71
2022/06/17 04:01:03;;;;;;;5.88;2.50;;;19.20;99.90;;;;;;4897511;28;92018;-71
2022/06/17 04:03:37;;;;;;;4.18;2.22;;;19.50;99.40;;;;;;4891979;28;95197;-71
2022/06/17 04:06:09;;;;;;;4.43;2.08;;;19.80;98.10;;;;;;4885149;28;94280;-72
2022/06/17 04:09:05;;;;;;;9.05;2.15;;;20.20;97.00;;;;;;4910417;28;91917;-72
2022/06/17 04:11:37;;;;;;;4.38;2.28;;;20.60;95.90;;;;;;4886738;28;92554;-72
2022/06/17 04:14:06;;;;;;;8.38;2.63;;;21.10;93.20;;;;;;4894236;28;92194;-72
2022/06/17 04:17:04;;;;;;;9.63;2.42;;;21.40;91.50;;;;;;4902046;28;91913;-72
2022/06/17 04:19:30;;;;;;;7.60;2.72;;;21.80;90.80;;;;;;4867336;28;92103;-72
2022/06/17 04:22:27;;;;;;;3.53;2.13;;;22.30;90.00;;;;;;4910218;28;91426;-73
2022/06/17 04:25:00;;;;;;;5.90;2.45;;;22.90;86.50;;;;;;4887691;28;92962;-72
2022/06/17 04:27:56;;;;;;;4.82;2.40;;;23.30;83.80;;;;;;4896639;28;92521;-72
2022/06/17 04:30:19;;;;;;;7.35;3.00;;;23.60;79.20;;;;;;4888142;28;93168;-71
2022/06/17 04:32:45;;;;;;;6.07;2.47;;;23.20;77.20;;;;;;4909603;28;92074;-71
2022/06/17 04:35:14;;;;;;;2.90;2.00;;;23.60;80.90;;;;;;4904368;28;93309;-71
2022/06/17 04:37:40;;;;;;;;;;;24.60;77.70;;;;;;4911023;28;92015;-72
2022/06/17 04:40:25;;;;;;;7.88;2.58;;;25.50;73.30;;;;;;4904356;28;91984;-71
2022/06/17 04:42:52;;;;;;;6.80;2.58;;;25.90;73.00;;;;;;4906247;28;92242;-71
2022/06/17 04:45:22;;;;;;;4.47;2.00;;;26.20;68.50;;;;;;4904602;28;93261;-71
2022/06/17 04:47:48;;;;;;;5.55;2.38;;;26.10;69.60;;;;;;4899307;28;92088;-71
2022/06/17 04:50:17;;;;;;;6.03;2.33;;;26.10;68.20;;;;;;4904589;28;91966;-71
2022/06/17 04:52:45;;;;;;;6.53;2.78;;;26.00;64.50;;;;;;4895392;28;92108;-72
2022/06/17 04:55:20;;;;;;;3.83;2.22;;;26.30;63.80;;;;;;4908629;28;93344;-72
2022/06/17 04:57:47;;;;;;;5.03;2.97;;;26.10;63.00;;;;;;4891026;28;93824;-72
2022/06/17 05:00:18;;;;;;;4.93;2.47;;;26.80;60.50;;;;;;4902264;28;91712;-72
2022/06/17 05:02:44;;;;;;;7.10;2.72;;;27.50;60.50;;;;;;4895525;28;92195;-72
2022/06/17 05:05:19;;;;;;;5.13;1.95;;;27.70;59.50;;;;;;4901819;28;91963;-73
2022/06/17 05:07:48;;;;;;;5.35;2.17;;;27.80;59.70;;;;;;4905519;28;91948;-73
2022/06/17 05:10:18;;;;;;;;;;;28.00;57.10;;;;;;4896262;28;92266;-72
2022/06/17 05:12:59;;;;;;;3.78;2.03;;;28.00;56.60;;;;;;4902639;28;91351;-71
2022/06/17 05:15:25;;;;;;;3.53;2.25;;;28.20;56.80;;;;;;4883744;28;92742;-71
2022/06/17 05:17:50;;;;;;;5.60;2.30;;;28.50;55.80;;;;;;4896055;28;92847;-71
2022/06/17 05:20:19;;;;;;;3.95;2.03;;;28.50;56.00;;;;;;4896024;28;92909;-72
2022/06/17 05:23:04;;;;;;;5.65;2.20;;;28.30;56.30;;;;;;4894397;28;92500;-71
2022/06/17 05:25:38;;;;;;;5.53;2.85;;;28.80;55.20;;;;;;4884924;28;92243;-71
2022/06/17 05:28:07;;;;;;;7.18;2.67;;;29.20;55.10;;;;;;4907644;28;92068;-72
2022/06/17 05:30:38;;;;;;;5.22;2.17;;;29.20;54.50;;;;;;4903330;28;92135;-71
2022/06/17 05:33:05;;;;;;;3.90;2.38;;;29.60;54.00;;;;;;4913525;28;92452;-72
2022/06/17 05:35:31;;;;;;;3.70;1.92;;;30.20;51.90;;;;;;4899004;28;92253;-72
2022/06/17 05:37:57;;;;;;;7.32;2.72;;;30.50;51.00;;;;;;4898939;28;92381;-72
2022/06/17 05:40:23;;;;;;;3.58;2.10;;;30.70;49.80;;;;;;4896885;28;92550;-73
2022/06/17 05:42:50;;;;;;;6.10;3.22;;;30.40;51.10;;;;;;4901229;28;92499;-73
2022/06/17 05:45:27;;;;;;;6.18;2.40;;;30.30;52.30;;;;;;4899933;28;93333;-73
2022/06/17 05:47:53;;;;;;;5.88;2.83;;;30.60;52.20;;;;;;4893861;28;92904;-71
2022/06/17 05:50:20;;;;;;;5.85;2.22;;;31.20;50.70;;;;;;4896353;28;92078;-72
2022/06/17 05:52:56;;;;;;;6.38;2.60;;;32.00;50.20;;;;;;4891395;28;92199;-71
2022/06/17 05:55:23;;;;;;;4.75;2.08;;;32.50;48.80;;;;;;4892064;28;92271;-72
2022/06/17 05:57:49;;;;;;;5.90;2.25;;;32.80;48.40;;;;;;4892281;28;92137;-72
2022/06/17 06:00:16;;;;;;;4.32;2.53;;;32.70;46.70;;;;;;4899300;28;92495;-71
2022/06/17 06:02:42;;;;;;;5.70;2.90;;;33.40;45.50;;;;;;4893364;28;91170;-72
2022/06/17 06:05:12;;;;;;;6.25;2.10;;;34.20;44.10;;;;;;4898471;28;92111;-72
2022/06/17 06:07:37;;;;;;;3.22;2.53;;;34.30;44.60;;;;;;4904139;28;92065;-72
2022/06/17 06:10:03;;;;;;;4.90;2.88;;;35.40;43.00;;;;;;4888787;28;93031;-72
2022/06/17 06:15:14;;;;;;;5.95;2.67;;;34.30;44.30;;;;;;4890569;28;92748;-71
2022/06/17 06:17:43;;;;;;;5.25;2.85;;;33.80;44.70;;;;;;4901627;28;92907;-72
2022/06/17 06:20:10;;;;;;;5.20;3.08;;;33.30;44.80;;;;;;4893427;28;91912;-72
2022/06/17 06:22:35;;;;;;;3.65;2.42;;;33.60;46.40;;;;;;4892628;28;91991;-72
2022/06/17 06:25:02;;;;;;;6.55;3.53;;;33.80;45.30;;;;;;4895544;28;92501;-72
2022/06/17 06:27:27;;;;;;;5.93;2.88;;;34.60;44.50;;;;;;4893099;28;92130;-73
2022/06/17 06:29:53;;;;;;;6.18;2.63;;;34.30;44.30;;;;;;4896053;28;92478;-73
2022/06/17 06:32:18;;;;;;;8.07;3.05;;;34.90;42.90;;;;;;4891075;28;92231;-72
2022/06/17 06:34:44;;;;;;;5.80;2.65;;;36.30;42.00;;;;;;4887763;28;93410;-73
2022/06/17 06:37:10;;;;;;;6.20;2.50;;;37.10;41.60;;;;;;4900302;28;92093;-73
2022/06/17 06:39:35;;;;;;;6.63;2.78;;;37.70;40.10;;;;;;4898308;28;91925;-72
2022/06/17 06:42:01;;;;;;;7.22;3.67;;;38.00;38.50;;;;;;4898145;28;92261;-73
2022/06/17 06:44:27;;;;;;;6.22;3.55;;;38.50;38.30;;;;;;4894574;28;92335;-73
2022/06/17 06:46:52;;;;;;;4.03;3.22;;;39.00;38.10;;;;;;4890619;28;91921;-72
2022/06/17 06:49:18;;;;;;;5.43;2.92;;;38.80;39.10;;;;;;4914868;28;92206;-72
2022/06/17 06:51:44;;;;;;;9.02;3.67;;;38.90;38.40;;;;;;4916853;28;91321;-73
2022/06/17 06:54:09;;;;;;;5.53;2.92;;;39.10;38.10;;;;;;4901197;28;92807;-74
2022/06/17 06:56:35;;;;;;;6.93;2.70;;;39.10;38.20;;;;;;4897822;28;91972;-73
2022/06/17 06:59:01;;;;;;;3.60;2.72;;;39.00;37.70;;;;;;4896731;28;93501;-72
2022/06/17 07:01:26;;;;;;;7.55;2.67;;;39.00;38.10;;;;;;4898076;28;92420;-73
2022/06/17 07:03:52;;;;;;;3.95;2.92;;;39.20;36.90;;;;;;4897974;28;93253;-71
2022/06/17 07:06:18;;;;;;;4.40;2.58;;;39.40;37.00;;;;;;4898639;28;92250;-72
2022/06/17 07:08:44;;;;;;;5.88;3.08;;;40.20;35.60;;;;;;4903998;28;92013;-73
2022/06/17 07:11:10;;;;;;;4.68;3.42;;;40.30;36.40;;;;;;4902687;28;92073;-73
2022/06/17 07:13:36;;;;;;;6.40;3.40;;;39.40;36.50;;;;;;4897878;28;92065;-71
2022/06/17 07:16:04;;;;;;;4.10;3.13;;;39.60;37.10;;;;;;4895433;28;92476;-73
2022/06/17 07:18:35;;;;;;;5.15;3.10;;;40.90;34.30;;;;;;4897919;28;91911;-72
2022/06/17 07:21:07;;;;;;;5.20;2.95;;;41.30;35.40;;;;;;4897978;28;91970;-72
2022/06/17 07:23:35;;;;;;;7.95;3.25;;;41.10;35.10;;;;;;4893393;28;93337;-73
2022/06/17 07:26:12;;;;;;;11.68;4.25;;;40.30;35.00;;;;;;4897544;28;93761;-73
2022/06/17 07:28:38;;;;;;;5.63;2.83;;;40.00;36.00;;;;;;4897499;28;92300;-73
2022/06/17 07:31:03;;;;;;;8.57;3.55;;;40.10;35.90;;;;;;4897638;28;92011;-72
2022/06/17 07:33:30;;;;;;;3.72;2.75;;;40.70;35.50;;;;;;4897331;28;93552;-73
2022/06/17 07:36:00;;;;;;;4.75;2.70;;;41.10;33.20;;;;;;4896950;28;92532;-72
2022/06/17 07:41:16;;;;;;;4.45;3.30;;;42.40;32.20;;;;;;4892794;28;91479;-73
2022/06/17 07:43:42;;;;;;;6.32;3.55;;;42.50;31.00;;;;;;4890411;28;92585;-74
2022/06/17 07:46:08;;;;;;;6.07;3.85;;;41.60;31.40;;;;;;4889703;28;93438;-73
2022/06/17 07:48:37;;;;;;;5.20;2.90;;;41.20;31.70;;;;;;4890683;28;93122;-74
2022/06/17 07:51:03;;;;;;;4.20;3.30;;;40.90;31.50;;;;;;4889249;28;92415;-73
2022/06/17 07:53:31;;;;;;;4.18;3.53;;;42.00;32.60;;;;;;4892383;28;92826;-74
2022/06/17 07:56:02;;;;;;;7.85;3.40;;;42.80;31.50;;;;;;4888626;28;92853;-74
2022/06/17 07:58:28;;;;;;;4.70;2.95;;;43.50;30.00;;;;;;4896846;28;92378;-73
2022/06/17 08:00:55;;;;;;;5.80;3.63;;;43.90;30.00;;;;;;4897303;28;92019;-74
2022/06/17 08:03:21;;;;;;;4.90;3.55;;;44.30;29.20;;;;;;4897124;28;93013;-73
2022/06/17 08:05:50;;;;;;;4.93;3.78;;;43.90;29.40;;;;;;4896621;28;91786;-73
2022/06/17 08:08:21;;;;;;;7.72;3.88;;;43.40;29.80;;;;;;4894509;28;91980;-74
2022/06/17 08:10:56;;;;;;;6.82;4.15;;;43.20;30.30;;;;;;4897867;28;92606;-73
2022/06/17 08:13:22;;;;;;;;;;;44.70;29.70;;;;;;4894898;28;93429;-73
2022/06/17 08:15:49;;;;;;;4.22;3.75;;;44.80;28.80;;;;;;4908687;28;92493;-73
2022/06/17 08:18:15;;;;;;;6.72;3.78;;;44.10;29.30;;;;;;4908262;28;91995;-73
2022/06/17 08:20:41;;;;;;;4.05;3.08;;;43.80;30.30;;;;;;4895529;28;92341;-74
2022/06/17 08:23:07;;;;;;;4.72;4.30;;;44.90;29.60;;;;;;4897084;28;92584;-74
2022/06/17 08:25:34;;;;;;;3.70;3.22;;;44.70;29.80;;;;;;4896703;28;92207;-74
2022/06/17 08:28:03;;;;;;;5.60;3.72;;;45.90;29.70;;;;;;4884791;28;92283;-73
2022/06/17 08:30:32;;;;;;;5.32;4.38;;;46.10;28.70;;;;;;4897621;28;91775;-73
2022/06/17 08:32:58;;;;;;;4.10;3.47;;;45.40;29.10;;;;;;4912443;28;92559;-74
2022/06/17 08:35:36;;;;;;;4.43;3.92;;;44.50;29.80;;;;;;4913915;28;92291;-74
2022/06/17 08:38:11;;;;;;;4.68;2.92;;;45.20;29.40;;;;;;4913972;28;92893;-74
2022/06/17 08:40:45;;;;;;;5.47;4.38;;;46.00;28.20;;;;;;4912038;28;91940;-73
2022/06/17 08:43:16;;;;;;;5.63;3.60;;;45.90;29.20;;;;;;4905707;28;92644;-73
2022/06/17 08:45:45;;;;;;;6.28;3.28;;;46.10;28.20;;;;;;4896471;28;92074;-73
2022/06/17 08:48:35;;;;;;;5.88;4.13;;;45.80;29.20;;;;;;4896583;28;91977;-74
2022/06/17 08:51:39;;;;;;;9.00;4.80;;;44.60;29.90;;;;;;4896493;28;92682;-75
2022/06/17 08:54:24;;;;;;;8.75;4.72;;;44.80;29.70;;;;;;4810174;28;92711;-73
2022/06/17 08:57:16;;;;;;;4.68;4.18;;;44.30;29.20;;;;;;4896722;28;95107;-74
2022/06/17 08:59:57;;;;;;;5.05;4.40;;;44.80;29.60;;;;;;4878930;28;92474;-73
2022/06/17 09:02:36;;;;;;;5.78;3.85;;;45.10;29.40;;;;;;4884275;28;92165;-74
2022/06/17 09:05:07;;;;;;;4.47;3.72;;;45.90;28.80;;;;;;4895357;28;94679;-73
2022/06/17 09:07:56;;;;;;;5.43;4.18;;;46.10;28.60;;;;;;4896070;28;94201;-74
2022/06/17 09:10:41;;;;;;;4.63;3.95;;;46.10;29.00;;;;;;4859591;28;92047;-73
2022/06/17 09:13:20;;;;;;;4.28;3.17;;;46.00;29.20;;;;;;4896646;28;92012;-73
2022/06/17 09:15:52;;;;;;;6.20;3.72;;;45.10;29.90;;;;;;4889511;28;93960;-73
2022/06/17 09:18:17;;;;;;;5.32;4.68;;;46.40;28.00;;;;;;4895615;28;93119;-73
2022/06/17 09:20:47;;;;;;;5.30;4.13;;;45.90;29.00;;;;;;4896137;28;92412;-73
2022/06/17 09:23:19;;;;;;;4.60;3.88;;;44.60;29.40;;;;;;4897173;28;91380;-73
2022/06/17 09:25:46;;;;;;;5.13;4.10;;;44.50;28.90;;;;;;4896310;28;92089;-74
2022/06/17 09:28:14;;;;;;;;;;;44.80;29.50;;;;;;4896097;28;92184;-74
2022/06/17 09:30:47;;;;;;;4.95;3.92;;;45.40;29.30;;;;;;4897083;28;93057;-74
2022/06/17 09:33:47;;;;;;;6.43;4.35;;;45.80;28.60;;;;;;4892190;28;92029;-74
2022/06/17 09:36:43;;;;;;;4.63;4.03;;;45.90;28.40;;;;;;4895261;28;92279;-74
2022/06/17 09:39:21;;;;;;;6.70;3.58;;;45.10;28.80;;;;;;4853739;28;93762;-74
2022/06/17 09:42:12;;;;;;;5.50;3.58;;;45.30;28.40;;;;;;4896454;28;92331;-73
2022/06/17 09:44:46;;;;;;;5.10;3.60;;;44.40;28.00;;;;;;4884142;28;91990;-73
2022/06/17 09:47:24;;;;;;;4.60;3.65;;;44.20;28.20;;;;;;4890672;28;92889;-73
2022/06/17 09:49:56;;;;;;;3.83;2.55;;;45.10;28.70;;;;;;4895025;28;92371;-73
2022/06/17 09:52:31;;;;;;;4.40;3.63;;;44.20;27.60;;;;;;4894026;28;92544;-73
2022/06/17 09:55:11;;;;;;;6.85;3.45;;;44.30;28.00;;;;;;4892848;28;92553;-75
2022/06/17 09:57:42;;;;;;;5.22;4.72;;;44.60;28.10;;;;;;4888094;28;94614;-73
2022/06/17 10:00:16;;;;;;;4.63;3.25;;;44.80;26.90;;;;;;4897670;28;92936;-72
2022/06/17 10:02:50;;;;;;;5.20;4.35;;;44.70;28.00;;;;;;4899165;28;92000;-74
2022/06/17 10:05:37;;;;;;;5.43;3.22;;;43.90;28.20;;;;;;4896558;28;92149;-73
2022/06/17 10:08:09;;;;;;;6.70;4.93;;;43.70;27.90;;;;;;4896913;28;92069;-74
2022/06/17 10:11:10;;;;;;;5.07;3.20;;;43.30;27.70;;;;;;4898559;28;92782;-72
2022/06/17 10:13:38;;;;;;;6.40;3.58;;;42.10;28.50;;;;;;4893799;28;92047;-74
2022/06/17 10:19:13;;;;;;;7.07;3.83;;;37.90;31.40;;;;;;4893079;28;92065;-72
2022/06/17 10:21:50;;;;;;;3.88;2.92;;;36.10;35.00;;;;;;4893703;28;92422;-73
2022/06/17 10:24:47;;;;;;;3.47;2.47;;;35.30;34.40;;;;;;4896447;28;92908;-72
2022/06/17 10:27:28;;;;;;;4.43;2.58;;;34.00;36.20;;;;;;4892840;28;92447;-72
2022/06/17 10:30:03;;;;;;;4.22;2.90;;;33.70;36.70;;;;;;4897929;28;92785;-72
2022/06/17 10:32:32;;;;;;;5.22;2.28;;;33.40;38.80;;;;;;4897558;28;92035;-72
2022/06/17 10:35:02;;;;;;;4.93;2.05;;;33.00;37.90;;;;;;4898258;28;92400;-71
2022/06/17 10:37:30;;;;;;;3.60;2.60;;;32.40;37.00;;;;;;4898158;28;91928;-72
2022/06/17 10:39:57;;;;;;;3.67;1.70;;;31.90;38.30;;;;;;4898284;28;92538;-71
2022/06/17 10:42:25;;;;;;;3.30;1.77;;;31.50;40.70;;;;;;4889787;28;92160;-71
2022/06/17 10:44:55;;;;;;;6.85;2.15;;;31.50;41.10;;;;;;4897301;28;92110;-73
2022/06/17 10:47:42;;;;;;;5.05;1.55;;;31.90;40.90;;;;;;4893509;28;91934;-74
2022/06/17 10:50:28;;;;;;;4.32;1.88;;;31.90;40.30;;;;;;4879986;28;96016;-72
2022/06/17 10:53:28;;;;;;;4.72;1.88;;;31.70;40.60;;;;;;4891761;28;92408;-72
2022/06/17 10:56:00;;;;;;;2.97;1.83;;;30.80;38.70;;;;;;4897730;28;92030;-72
2022/06/17 10:58:33;;;;;;;4.43;1.85;;;30.70;41.40;;;;;;4898208;28;92016;-71
2022/06/17 11:01:07;;;;;;;5.40;1.45;;;30.40;41.60;;;;;;4892767;28;92001;-73
2022/06/17 11:03:41;;;;;;;4.35;1.17;;;30.50;40.90;;;;;;4890583;28;92112;-73
2022/06/17 11:06:10;;;;;;;6.50;1.55;;;30.30;40.80;;;;;;4898029;28;92005;-72
2022/06/17 11:08:52;;;;;;;5.82;1.80;;;30.00;41.50;;;;;;4897761;28;91948;-72
2022/06/17 11:14:35;;;;;;;3.78;1.33;;;31.20;40.70;;;;;;4890483;28;92065;-73
2022/06/17 11:17:03;;;;;;;2.85;1.50;;;31.30;38.70;;;;;;4889716;28;93095;-72
2022/06/17 11:19:30;;;;;;;3.15;1.45;;;31.00;39.70;;;;;;4898308;28;91946;-73
2022/06/17 11:22:01;;;;;;;7.57;1.48;;;30.90;39.40;;;;;;4897402;28;92401;-73
2022/06/17 11:24:34;;;;;;;4.63;1.65;;;30.80;40.00;;;;;;4900941;28;92119;-72
2022/06/17 11:27:14;;;;;;;4.80;1.48;;;30.40;42.90;;;;;;4901702;28;92109;-73
2022/06/17 11:29:44;;;;;;;5.15;1.75;;;30.40;43.60;;;;;;4902617;28;92102;-72
2022/06/17 11:32:19;;;;;;;4.53;2.45;;;30.20;42.80;;;;;;4900938;28;93751;-72
2022/06/17 11:34:52;;;;;;;4.80;1.30;;;30.30;42.60;;;;;;4901112;28;91224;-73
2022/06/17 11:37:20;;;;;;;3.72;1.75;;;30.70;43.80;;;;;;4899774;28;92029;-72
2022/06/17 11:39:46;;;;;;;3.97;1.40;;;30.60;44.80;;;;;;4900932;28;92624;-71
2022/06/17 11:42:19;;;;;;;9.40;1.83;;;30.60;44.60;;;;;;4897162;28;94125;-72
2022/06/17 11:44:49;;;;;;;4.03;1.55;;;30.60;42.30;;;;;;4889300;28;92139;-71
2022/06/17 11:47:21;;;;;;;4.72;1.95;;;30.40;44.80;;;;;;4889889;28;92059;-72
2022/06/17 11:49:47;;;;;;;4.90;1.70;;;30.30;43.70;;;;;;4901075;28;91837;-73
2022/06/17 11:52:34;;;;;;;6.07;1.48;;;30.10;40.30;;;;;;4900084;28;93310;-73
2022/06/17 11:55:00;;;;;;;2.80;1.42;;;29.90;42.70;;;;;;4900141;28;93367;-73
2022/06/17 11:57:33;;;;;;;3.40;1.63;;;29.90;42.60;;;;;;4900612;28;91951;-74
2022/06/17 12:00:20;;;;;;;3.67;1.48;;;29.70;43.60;;;;;;4888376;28;91360;-73
2022/06/17 12:02:58;;;;;;;5.80;1.83;;;29.80;41.90;;;;;;4872163;28;93189;-73
2022/06/17 12:05:27;;;;;;;3.47;1.42;;;29.50;43.00;;;;;;4895566;28;92639;-73
2022/06/17 12:07:56;;;;;;;4.82;1.42;;;29.60;44.00;;;;;;4882397;28;92957;-74
2022/06/17 12:10:35;;;;;;;2.70;1.55;;;29.70;42.20;;;;;;4894689;28;91979;-73
2022/06/17 12:13:24;;;;;;;7.22;1.33;;;29.90;37.60;;;;;;4882774;28;92128;-74
2022/06/17 12:16:06;;;;;;;4.35;1.42;;;29.80;43.00;;;;;;4888481;28;92046;-73
2022/06/17 12:18:37;;;;;;;5.47;1.65;;;29.70;42.50;;;;;;4883822;28;92041;-73
2022/06/17 12:21:22;;;;;;;2.70;1.33;;;29.40;41.50;;;;;;4883703;28;91994;-73
2022/06/17 12:24:08;;;;;;;3.40;1.27;;;29.40;41.60;;;;;;4881860;28;92712;-74
2022/06/17 12:26:52;;;;;;;3.40;1.10;;;29.40;42.90;;;;;;4888122;28;92030;-74
2022/06/17 12:29:23;;;;;;;2.83;1.45;;;29.50;38.80;;;;;;4890807;28;91859;-73
2022/06/17 12:31:59;;;;;;;2.90;1.30;;;29.60;36.70;;;;;;4881960;28;92134;-73
2022/06/17 12:34:33;;;;;;;3.05;1.35;;;29.50;40.00;;;;;;4881365;28;93159;-73
2022/06/17 12:37:10;;;;;;;4.25;1.17;;;29.60;42.90;;;;;;4881862;28;94044;-73
2022/06/17 12:40:06;;;;;;;3.80;1.50;;;29.70;42.80;;;;;;4882668;28;92038;-74
2022/06/17 12:43:04;;;;;;;3.28;1.20;;;29.60;42.30;;;;;;4882151;28;91968;-73
2022/06/17 12:45:55;;;;;;;3.92;1.65;;;29.70;43.70;;;;;;4871927;28;92135;-73
2022/06/17 12:48:33;;;;;;;5.60;1.25;;;29.60;38.30;;;;;;4889190;28;92176;-73
2022/06/17 12:54:07;;;;;;;6.13;1.20;;;29.40;41.70;;;;;;4899791;28;91333;-73
2022/06/17 12:56:54;;;;;;;3.08;1.33;;;29.20;39.10;;;;;;4889184;28;92027;-73
2022/06/17 12:59:26;;;;;;;6.15;1.48;;;29.20;40.60;;;;;;4889312;28;92410;-73
2022/06/17 13:02:12;;;;;;;4.57;1.45;;;29.30;39.20;;;;;;4894330;28;92914;-73
2022/06/17 13:04:47;;;;;;;2.40;1.15;;;29.10;42.90;;;;;;4899714;28;92183;-76
2022/06/17 13:07:52;;;;;;;3.22;1.23;;;29.10;43.70;;;;;;4880749;28;93151;-73
2022/06/17 13:10:39;;;;;;;4.78;1.25;;;29.20;43.80;;;;;;4870525;28;92256;-73
2022/06/17 13:13:15;;;;;;;5.50;1.35;;;29.10;45.40;;;;;;4885830;28;92141;-74
2022/06/17 13:15:56;;;;;;;5.35;1.25;;;29.00;44.20;;;;;;4879363;28;91951;-73
2022/06/17 13:18:46;;;;;;;4.55;1.95;;;29.10;42.70;;;;;;4897389;28;92265;-73
2022/06/17 13:21:25;;;;;;;4.15;1.27;;;29.00;44.40;;;;;;4899376;28;92066;-73
2022/06/17 13:24:00;;;;;;;7.65;1.60;;;29.10;44.00;;;;;;4899315;28;92124;-73
2022/06/17 13:26:44;;;;;;;2.22;1.50;;;29.40;43.50;;;;;;4895549;28;92174;-73
2022/06/17 13:29:12;;;;;;;5.10;1.52;;;29.40;43.90;;;;;;4881604;28;93243;-72
2022/06/17 13:31:45;;;;;;;5.07;1.92;;;29.20;41.70;;;;;;4887522;28;92140;-73
2022/06/17 13:34:11;;;;;;;5.30;2.25;;;28.80;41.80;;;;;;4898893;28;92073;-73
2022/06/17 13:36:50;;;;;;;3.13;1.42;;;28.70;43.50;;;;;;4892754;28;91951;-73
2022/06/17 13:39:21;;;;;;;4.18;1.58;;;28.80;44.30;;;;;;4884175;28;92722;-72
2022/06/17 13:42:03;;;;;;;4.43;1.98;;;28.90;42.90;;;;;;4898922;28;92964;-73
2022/06/17 13:44:50;;;;;;;4.82;1.63;;;29.00;42.20;;;;;;4887866;28;91987;-73
2022/06/17 13:47:51;;;;;;;5.30;1.60;;;28.70;41.90;;;;;;4895741;28;91346;-73
2022/06/17 13:50:39;;;;;;;5.03;1.38;;;28.50;42.60;;;;;;4824730;29;92302;-73
2022/06/17 13:53:17;;;;;;;3.42;1.67;;;28.50;42.30;;;;;;4884952;28;92924;-73
2022/06/17 13:56:01;;;;;;;3.03;1.42;;;28.60;43.90;;;;;;4885550;28;92933;-73
2022/06/17 13:58:30;;;;;;;3.85;1.48;;;28.70;43.40;;;;;;4898767;28;92074;-72
2022/06/17 14:01:05;;;;;;;3.65;1.42;;;29.00;39.90;;;;;;4893052;28;92110;-72
2022/06/17 14:03:49;;;;;;;3.40;1.00;;;29.00;40.30;;;;;;4897915;28;92717;-73
2022/06/17 14:06:15;;;;;;;2.67;0.95;;;29.10;40.50;;;;;;4887130;28;92110;-73
2022/06/17 14:08:50;;;;;;;5.25;1.13;;;29.00;41.60;;;;;;4897645;28;92103;-73
2022/06/17 14:11:34;;;;;;;2.58;1.15;;;28.80;37.60;;;;;;4886164;28;92282;-74
2022/06/17 14:14:18;;;;;;;4.65;1.42;;;28.60;40.40;;;;;;4898705;28;91906;-73
2022/06/17 14:16:54;;;;;;;2.90;0.90;;;28.60;39.50;;;;;;4884003;28;92295;-73
2022/06/17 14:19:47;;;;;;;3.70;1.17;;;28.70;40.50;;;;;;4880137;28;92331;-72
2022/06/17 14:22:25;;;;;;;5.60;1.23;;;28.80;36.70;;;;;;4875309;28;94838;-72
2022/06/17 14:24:53;;;;;;;2.45;1.02;;;28.90;41.40;;;;;;4898645;28;93323;-73
2022/06/17 14:27:25;;;;;;;3.28;1.52;;;29.00;40.50;;;;;;4880408;28;92245;-73
2022/06/17 14:30:15;;;;;;;3.20;1.35;;;28.90;39.20;;;;;;4880474;28;91924;-74
2022/06/17 14:32:46;;;;;;;3.78;1.30;;;28.80;41.20;;;;;;4893822;28;92716;-73
2022/06/17 14:35:24;;;;;;;4.63;1.40;;;28.80;38.40;;;;;;4898186;28;91987;-73
2022/06/17 14:38:10;;;;;;;2.05;0.90;;;28.80;39.10;;;;;;4886452;28;92067;-72
2022/06/17 14:43:29;;;;;;;2.33;0.93;;;29.10;37.40;;;;;;4882453;28;92181;-73
2022/06/17 14:46:02;;;;;;;1.88;0.77;;;29.30;34.20;;;;;;4894255;28;92957;-72
2022/06/17 14:48:37;;;;;;;2.40;0.70;;;29.10;34.40;;;;;;4890767;28;92935;-73
2022/06/17 14:51:31;;;;;;;1.85;0.45;;;29.20;36.90;;;;;;4898263;28;92029;-73
2022/06/17 14:54:00;;;;;;;4.57;0.70;;;29.40;36.50;;;;;;4884401;28;92685;-74
2022/06/17 14:56:38;;;;;;;1.55;0.63;;;29.70;36.40;;;;;;4891434;28;92133;-72
2022/06/17 14:59:15;;;;;;;4.55;0.88;;;29.70;36.40;;;;;;4889707;28;92060;-73
2022/06/17 15:01:58;;;;;;;2.22;1.00;;;29.60;38.00;;;;;;4897514;28;92119;-73
2022/06/17 15:04:23;;;;;;;1.88;0.68;;;29.60;37.20;;;;;;4900788;28;93840;-74
2022/06/17 15:06:51;;;;;;;2.85;0.80;;;29.50;39.30;;;;;;4901651;28;92249;-73
2022/06/17 15:09:29;;;;;;;1.88;0.70;;;29.40;38.70;;;;;;4901404;28;92038;-72
2022/06/17 15:12:02;;;;;;;2.78;1.05;;;29.40;39.40;;;;;;4884618;28;92014;-74
2022/06/17 15:14:28;;;;;;;3.10;0.82;;;29.40;39.50;;;;;;4883988;28;93220;-73
2022/06/17 15:17:04;;;;;;;3.97;1.08;;;29.20;38.30;;;;;;4900193;28;92603;-73
2022/06/17 15:19:41;;;;;;;1.55;0.93;;;29.00;38.20;;;;;;4887969;28;92132;-74
2022/06/17 15:22:22;;;;;;;1.58;0.95;;;29.10;36.30;;;;;;4901312;28;91788;-73
2022/06/17 15:25:09;;;;;;;2.20;0.88;;;29.10;36.50;;;;;;4900526;28;92707;-73
2022/06/17 15:27:49;;;;;;;1.50;0.80;;;28.90;36.40;;;;;;4899948;28;92141;-73
2022/06/17 15:30:15;;;;;;;2.53;1.02;;;28.80;38.10;;;;;;4892335;28;92461;-73
2022/06/17 15:32:49;;;;;;;3.47;0.65;;;28.70;37.70;;;;;;4901216;28;91323;-73
2022/06/17 15:35:26;;;;;;;1.20;0.57;;;28.50;37.10;;;;;;4900362;28;92129;-73
2022/06/17 15:38:03;;;;;;;1.75;0.57;;;28.60;38.20;;;;;;4888881;28;92303;-73
2022/06/17 15:40:35;;;;;;;1.52;0.80;;;28.60;36.30;;;;;;4900954;28;93156;-73
2022/06/17 15:43:03;;;;;;;2.83;1.15;;;28.80;37.20;;;;;;4892227;28;92010;-72
2022/06/17 15:45:30;;;;;;;3.05;0.95;;;28.80;40.80;;;;;;4891301;28;93698;-73
2022/06/17 15:48:07;;;;;;;1.90;0.85;;;28.80;41.10;;;;;;4893691;28;92537;-73
2022/06/17 15:50:47;;;;;;;6.50;0.90;;;28.60;41.10;;;;;;4897586;28;92099;-73
2022/06/17 15:53:26;;;;;;;1.95;0.82;;;28.80;39.70;;;;;;4899728;28;91998;-72
2022/06/17 15:55:53;;;;;;;3.80;0.77;;;28.70;36.90;;;;;;4887598;28;92297;-75
2022/06/17 15:58:27;;;;;;;1.35;0.63;;;28.70;39.40;;;;;;4899199;28;92354;-74
2022/06/17 16:00:57;;;;;;;2.20;0.85;;;28.60;40.60;;;;;;4891324;28;93359;-73
2022/06/17 16:03:26;;;;;;;2.30;1.08;;;28.60;41.40;;;;;;4891132;28;92805;-74
2022/06/17 16:06:04;;;;;;;1.70;0.57;;;28.60;41.00;;;;;;4887483;28;94132;-74
2022/06/17 16:08:36;;;;;;;1.90;0.80;;;28.60;41.60;;;;;;4895729;28;92276;-73
2022/06/17 16:11:07;;;;;;;5.15;1.00;;;28.60;40.20;;;;;;4886681;28;91958;-74
2022/06/17 16:13:36;;;;;;;2.03;0.77;;;28.60;40.50;;;;;;4884653;28;91978;-73
2022/06/17 16:16:16;;;;;;;1.20;0.65;;;28.40;40.40;;;;;;4896146;28;93169;-73
2022/06/17 16:18:47;;;;;;;1.40;0.68;;;28.40;40.60;;;;;;4895630;28;92999;-74
2022/06/17 16:21:25;;;;;;;2.80;0.63;;;28.50;42.10;;;;;;4890364;28;92174;-73
2022/06/17 16:24:17;;;;;;;2.80;0.85;;;28.50;40.40;;;;;;4891459;28;91408;-72
2022/06/17 16:26:47;;;;;;;3.17;0.50;;;28.50;41.10;;;;;;4892438;28;92465;-74
2022/06/17 16:29:15;;;;;;;1.65;0.55;;;28.20;40.10;;;;;;4892267;28;92108;-73